createdAt,value
2022-10-15T00:00:08.983Z,14.00
2022-10-15T00:02:35.710Z,13.90
2022-10-15T00:05:02.571Z,13.90
2022-10-15T00:07:29.594Z,13.90
2022-10-15T00:09:56.301Z,13.80
2022-10-15T00:12:23.510Z,14.00
2022-10-15T00:14:50.228Z,14.00
2022-10-15T00:17:16.919Z,13.90
2022-10-15T00:19:43.631Z,13.90
2022-10-15T00:22:10.352Z,14.00
2022-10-15T00:24:37.411Z,13.90
2022-10-15T00:27:04.142Z,14.00
2022-10-15T00:29:30.832Z,14.00
2022-10-15T00:31:57.558Z,14.00
2022-10-15T00:34:24.317Z,14.00
2022-10-15T00:36:51.224Z,14.00
2022-10-15T00:39:17.955Z,14.10
2022-10-15T00:41:45.714Z,14.00
2022-10-15T00:44:21.246Z,14.00
2022-10-15T00:46:52.016Z,14.10
2022-10-15T00:49:51.003Z,14.10
2022-10-15T00:52:23.695Z,14.10
2022-10-15T00:54:56.326Z,14.10
2022-10-15T00:57:24.450Z,14.10
2022-10-15T00:59:54.174Z,14.20
2022-10-15T01:02:21.700Z,14.10
2022-10-15T01:04:50.710Z,14.20
2022-10-15T01:09:49.577Z,14.20
2022-10-15T01:12:34.376Z,14.20
2022-10-15T01:15:29.199Z,14.20
2022-10-15T01:18:09.348Z,14.10
2022-10-15T01:21:15.506Z,14.10
2022-10-15T01:23:59.138Z,14.20
2022-10-15T01:26:40.686Z,14.20
2022-10-15T01:29:29.028Z,14.20
2022-10-15T01:32:12.684Z,14.10
2022-10-15T01:34:56.106Z,14.20
2022-10-15T01:37:39.181Z,14.30
2022-10-15T01:40:17.842Z,14.20
2022-10-15T01:42:58.445Z,14.20
2022-10-15T01:45:39.873Z,14.30
2022-10-15T01:48:18.629Z,14.30
2022-10-15T01:50:50.742Z,14.30
2022-10-15T01:53:26.541Z,14.30
2022-10-15T01:55:58.119Z,14.30
2022-10-15T01:58:25.805Z,14.20
2022-10-15T02:00:55.869Z,14.20
2022-10-15T02:03:22.739Z,14.20
2022-10-15T02:05:56.817Z,14.20
2022-10-15T02:08:44.618Z,14.20
2022-10-15T02:11:16.455Z,14.20
2022-10-15T02:14:09.331Z,14.20
2022-10-15T02:16:43.092Z,14.10
2022-10-15T02:19:18.726Z,14.10
2022-10-15T02:21:52.458Z,14.10
2022-10-15T02:24:38.823Z,14.10
2022-10-15T02:27:08.397Z,14.10
2022-10-15T02:29:38.746Z,14.10
2022-10-15T02:32:07.525Z,14.10
2022-10-15T02:34:35.766Z,14.00
2022-10-15T02:37:04.890Z,13.90
2022-10-15T02:39:34.167Z,13.90
2022-10-15T02:42:01.375Z,13.90
2022-10-15T02:44:28.171Z,13.90
2022-10-15T02:46:56.691Z,13.90
2022-10-15T02:49:23.710Z,13.90
2022-10-15T02:51:51.287Z,13.90
2022-10-15T02:54:18.090Z,13.90
2022-10-15T02:56:47.278Z,13.90
2022-10-15T02:59:15.340Z,13.80
2022-10-15T03:01:42.118Z,13.80
2022-10-15T03:04:09.781Z,13.90
2022-10-15T03:06:37.294Z,13.90
2022-10-15T03:09:04.928Z,13.90
2022-10-15T03:11:32.481Z,13.90
2022-10-15T03:13:59.325Z,13.90
2022-10-15T03:16:26.202Z,13.80
2022-10-15T03:18:53.021Z,13.80
2022-10-15T03:21:21.349Z,13.90
2022-10-15T03:23:48.128Z,13.80
2022-10-15T03:26:19.287Z,13.80
2022-10-15T03:28:46.052Z,13.80
2022-10-15T03:31:20.850Z,13.90
2022-10-15T03:33:49.026Z,13.80
2022-10-15T03:36:18.215Z,13.80
2022-10-15T03:38:45.225Z,13.90
2022-10-15T03:41:14.045Z,13.80
2022-10-15T03:43:43.004Z,13.80
2022-10-15T03:46:12.989Z,13.80
2022-10-15T03:48:43.103Z,13.80
2022-10-15T03:51:14.652Z,13.80
2022-10-15T03:53:44.962Z,13.90
2022-10-15T03:56:11.841Z,13.80
2022-10-15T03:58:40.435Z,13.80
2022-10-15T04:01:15.399Z,13.70
2022-10-15T04:03:42.460Z,13.80
2022-10-15T04:06:09.991Z,13.70
2022-10-15T04:08:38.104Z,13.80
2022-10-15T04:11:19.154Z,13.70
2022-10-15T04:13:52.670Z,13.70
2022-10-15T04:16:19.714Z,13.70
2022-10-15T04:18:46.456Z,13.70
2022-10-15T04:21:13.303Z,13.80
2022-10-15T04:23:42.525Z,13.80
2022-10-15T04:26:24.971Z,13.80
2022-10-15T04:28:51.770Z,13.80
2022-10-15T04:31:20.796Z,13.80
2022-10-15T04:33:49.425Z,13.70
2022-10-15T04:38:52.415Z,13.70
2022-10-15T04:41:26.980Z,13.60
2022-10-15T04:43:59.566Z,13.80
2022-10-15T04:46:29.414Z,13.80
2022-10-15T04:48:59.015Z,13.80
2022-10-15T04:51:26.801Z,13.80
2022-10-15T04:54:19.776Z,13.80
2022-10-15T04:56:56.292Z,13.80
2022-10-15T04:59:23.211Z,13.80
2022-10-15T05:02:22.411Z,13.80
2022-10-15T05:04:54.721Z,13.80
2022-10-15T05:07:21.954Z,13.80
2022-10-15T05:09:50.221Z,13.80
2022-10-15T05:12:17.158Z,13.80
2022-10-15T05:14:43.898Z,13.80
2022-10-15T05:17:26.045Z,13.70
2022-10-15T05:19:57.383Z,13.80
2022-10-15T05:22:27.443Z,13.90
2022-10-15T05:24:58.187Z,13.80
2022-10-15T05:27:27.236Z,13.90
2022-10-15T05:29:54.229Z,13.90
2022-10-15T05:34:51.158Z,13.90
2022-10-15T05:37:18.085Z,13.90
2022-10-15T05:39:44.784Z,13.90
2022-10-15T05:42:11.964Z,14.00
2022-10-15T05:44:42.250Z,14.00
2022-10-15T05:47:11.924Z,13.90
2022-10-15T05:49:39.332Z,14.00
2022-10-15T05:52:12.854Z,13.90
2022-10-15T05:54:58.182Z,14.00
2022-10-15T05:57:24.878Z,14.00
2022-10-15T05:59:51.558Z,13.90
2022-10-15T06:02:18.383Z,13.80
2022-10-15T06:04:46.937Z,13.80
2022-10-15T06:07:13.656Z,13.80
2022-10-15T06:09:40.367Z,13.80
2022-10-15T06:12:07.103Z,13.90
2022-10-15T06:14:33.826Z,14.00
2022-10-15T06:17:00.840Z,14.00
2022-10-15T06:19:27.594Z,14.00
2022-10-15T06:21:54.332Z,14.00
2022-10-15T06:24:21.349Z,14.00
2022-10-15T06:26:48.121Z,13.90
2022-10-15T06:29:14.936Z,13.80
2022-10-15T06:31:41.755Z,13.90
2022-10-15T06:34:08.527Z,13.90
2022-10-15T06:36:35.268Z,13.90
2022-10-15T06:39:01.970Z,13.80
2022-10-15T06:41:28.686Z,13.90
2022-10-15T06:43:55.418Z,13.90
2022-10-15T06:46:22.149Z,13.90
2022-10-15T06:48:49.927Z,13.90
2022-10-15T06:51:16.650Z,13.90
2022-10-15T06:53:49.545Z,13.90
2022-10-15T06:56:16.654Z,14.00
2022-10-15T06:58:44.842Z,14.00
2022-10-15T07:01:11.687Z,13.80
2022-10-15T07:03:39.103Z,13.90
2022-10-15T07:06:08.472Z,13.90
2022-10-15T07:08:36.016Z,13.90
2022-10-15T07:11:05.315Z,13.90
2022-10-15T07:13:33.252Z,14.00
2022-10-15T07:16:12.192Z,14.00
2022-10-15T07:18:39.556Z,14.10
2022-10-15T07:21:08.300Z,14.10
2022-10-15T07:23:35.094Z,14.20
2022-10-15T07:26:02.105Z,14.30
2022-10-15T07:28:28.951Z,14.40
2022-10-15T07:30:59.865Z,14.40
2022-10-15T07:33:26.657Z,14.50
2022-10-15T07:35:59.330Z,14.50
2022-10-15T07:38:26.103Z,14.50
2022-10-15T07:40:52.831Z,14.50
2022-10-15T07:43:20.647Z,14.40
2022-10-15T07:45:49.319Z,14.40
2022-10-15T07:48:16.372Z,14.40
2022-10-15T07:50:43.211Z,14.40
2022-10-15T07:53:10.374Z,14.40
2022-10-15T07:55:37.201Z,14.30
2022-10-15T07:58:05.799Z,14.40
2022-10-15T08:03:05.291Z,14.40
2022-10-15T08:05:33.128Z,14.30
2022-10-15T08:08:00.313Z,14.30
2022-10-15T08:10:27.596Z,14.20
2022-10-15T08:12:54.326Z,14.20
2022-10-15T08:15:21.056Z,14.20
2022-10-15T08:17:47.838Z,14.10
2022-10-15T08:20:15.203Z,14.10
2022-10-15T08:22:41.973Z,14.10
2022-10-15T08:25:09.089Z,14.20
2022-10-15T08:27:36.474Z,14.20
2022-10-15T08:30:04.666Z,14.20
2022-10-15T08:32:31.602Z,14.30
2022-10-15T08:34:58.327Z,14.20
2022-10-15T08:37:25.081Z,14.30
2022-10-15T08:39:51.872Z,14.30
2022-10-15T08:42:23.093Z,14.40
2022-10-15T08:45:03.953Z,14.30
2022-10-15T08:47:37.320Z,14.30
2022-10-15T08:50:17.736Z,14.30
2022-10-15T08:52:50.310Z,14.40
2022-10-15T08:55:20.356Z,14.40
2022-10-15T08:57:54.193Z,14.60
2022-10-15T09:00:36.192Z,14.70
2022-10-15T09:03:11.855Z,14.70
2022-10-15T09:06:05.866Z,14.80
2022-10-15T09:08:42.052Z,14.80
2022-10-15T09:11:55.536Z,14.90
2022-10-15T09:14:31.650Z,15.00
2022-10-15T09:17:01.645Z,15.00
2022-10-15T09:19:29.495Z,15.00
2022-10-15T09:21:56.596Z,15.10
2022-10-15T09:24:25.833Z,15.30
2022-10-15T09:27:20.949Z,15.30
2022-10-15T09:29:55.135Z,15.50
2022-10-15T09:32:43.721Z,15.40
2022-10-15T09:35:13.295Z,15.40
2022-10-15T09:38:22.737Z,15.60
2022-10-15T09:41:27.209Z,15.60
2022-10-15T09:43:57.813Z,15.60
2022-10-15T09:46:28.862Z,15.40
2022-10-15T09:49:18.834Z,15.30
2022-10-15T09:52:02.543Z,15.20
2022-10-15T09:54:50.723Z,15.20
2022-10-15T09:57:19.137Z,15.20
2022-10-15T10:00:01.718Z,15.30
2022-10-15T10:02:30.031Z,15.30
2022-10-15T10:04:57.211Z,15.40
2022-10-15T10:07:38.114Z,15.30
2022-10-15T10:10:21.238Z,15.30
2022-10-15T10:12:48.315Z,15.50
2022-10-15T10:15:36.065Z,15.60
2022-10-15T10:18:06.592Z,15.70
2022-10-15T10:20:34.325Z,15.80
2022-10-15T10:23:19.793Z,15.80
2022-10-15T10:25:48.509Z,15.70
2022-10-15T10:28:33.047Z,15.70
2022-10-15T10:31:06.779Z,15.50
2022-10-15T10:33:52.373Z,15.30
2022-10-15T10:36:28.460Z,15.20
2022-10-15T10:39:23.509Z,15.00
2022-10-15T10:41:51.677Z,15.10
2022-10-15T10:44:20.290Z,15.00
2022-10-15T10:47:10.573Z,15.00
2022-10-15T10:49:42.062Z,15.00
2022-10-15T10:52:27.077Z,15.10
2022-10-15T10:55:17.519Z,15.20
2022-10-15T10:57:47.312Z,15.20
2022-10-15T11:00:19.601Z,15.20
2022-10-15T11:02:49.595Z,15.20
2022-10-15T11:05:25.389Z,15.20
2022-10-15T11:08:19.142Z,15.20
2022-10-15T11:11:07.032Z,15.30
2022-10-15T11:13:55.532Z,15.40
2022-10-15T11:16:38.214Z,15.50
2022-10-15T11:19:18.626Z,15.70
2022-10-15T11:21:46.850Z,15.80
2022-10-15T11:24:20.582Z,16.00
2022-10-15T11:27:10.736Z,16.20
2022-10-15T11:30:03.437Z,16.20
2022-10-15T11:33:11.442Z,16.20
2022-10-15T11:35:53.772Z,16.40
2022-10-15T11:38:37.686Z,16.90
2022-10-15T11:41:22.726Z,17.30
2022-10-15T11:44:24.900Z,17.40
2022-10-15T11:47:10.348Z,17.60
2022-10-15T11:49:43.606Z,17.70
2022-10-15T11:52:13.090Z,17.60
2022-10-15T11:54:47.521Z,17.50
2022-10-15T11:57:18.930Z,17.20
2022-10-15T11:59:55.898Z,17.00
2022-10-15T12:02:35.162Z,16.80
2022-10-15T12:05:18.552Z,16.70
2022-10-15T12:07:50.057Z,16.50
2022-10-15T12:10:38.311Z,16.20
2022-10-15T12:13:15.976Z,16.10
2022-10-15T12:15:52.014Z,16.00
2022-10-15T12:18:43.319Z,15.80
2022-10-15T12:21:28.888Z,15.70
2022-10-15T12:23:55.600Z,15.70
2022-10-15T12:26:25.102Z,15.70
2022-10-15T12:29:02.285Z,15.60
2022-10-15T12:31:56.928Z,15.60
2022-10-15T12:34:38.001Z,15.70
2022-10-15T12:37:17.528Z,15.70
2022-10-15T12:39:52.454Z,15.80
2022-10-15T12:42:25.901Z,15.80
2022-10-15T12:44:53.100Z,15.80
2022-10-15T12:47:51.064Z,15.90
2022-10-15T12:50:20.169Z,16.10
2022-10-15T12:52:59.342Z,16.10
2022-10-15T12:55:34.202Z,16.30
2022-10-15T12:58:04.221Z,16.30
2022-10-15T13:00:38.014Z,16.30
2022-10-15T13:03:18.661Z,16.20
2022-10-15T13:05:47.845Z,16.10
2022-10-15T13:08:23.323Z,16.00
2022-10-15T13:10:54.841Z,15.80
2022-10-15T13:13:25.926Z,15.70
2022-10-15T13:16:01.264Z,15.70
2022-10-15T13:18:30.723Z,15.70
2022-10-15T13:20:57.836Z,15.50
2022-10-15T13:23:31.644Z,15.50
2022-10-15T13:26:17.723Z,15.60
2022-10-15T13:28:45.509Z,15.70
2022-10-15T13:31:27.461Z,15.80
2022-10-15T13:34:25.148Z,15.80
2022-10-15T13:36:53.594Z,15.80
2022-10-15T13:39:29.142Z,15.90
2022-10-15T13:42:17.388Z,16.00
2022-10-15T13:44:56.756Z,16.00
2022-10-15T13:47:28.053Z,16.20
2022-10-15T13:50:25.034Z,16.20
2022-10-15T13:53:09.962Z,16.20
2022-10-15T13:55:39.209Z,16.20
2022-10-15T13:58:23.506Z,16.20
2022-10-15T14:01:00.437Z,16.10
2022-10-15T14:03:31.875Z,16.10
2022-10-15T14:06:11.467Z,16.10
2022-10-15T14:08:38.386Z,16.20
2022-10-15T14:11:05.254Z,16.20
2022-10-15T14:13:32.004Z,16.20
2022-10-15T14:16:17.343Z,16.10
2022-10-15T14:18:49.250Z,16.00
2022-10-15T14:21:19.877Z,16.10
2022-10-15T14:23:48.595Z,16.00
2022-10-15T14:26:23.279Z,16.00
2022-10-15T14:28:52.138Z,16.00
2022-10-15T14:31:35.795Z,16.10
2022-10-15T14:34:03.735Z,16.20
2022-10-15T14:36:32.386Z,16.10
2022-10-15T14:39:47.690Z,16.10
2022-10-15T14:42:30.791Z,16.10
2022-10-15T14:45:10.040Z,16.10
2022-10-15T14:47:37.031Z,16.10
2022-10-15T14:50:06.064Z,16.10
2022-10-15T14:52:34.632Z,16.00
2022-10-15T14:55:14.491Z,16.00
2022-10-15T14:57:44.420Z,15.90
2022-10-15T15:00:15.889Z,15.90
2022-10-15T15:02:42.664Z,15.90
2022-10-15T15:05:12.720Z,15.90
2022-10-15T15:07:40.911Z,15.90
2022-10-15T15:10:09.301Z,15.90
2022-10-15T15:12:38.790Z,15.70
2022-10-15T15:15:14.115Z,15.60
2022-10-15T15:17:40.970Z,15.60
2022-10-15T15:20:08.251Z,15.60
2022-10-15T15:22:36.023Z,15.50
2022-10-15T15:25:13.942Z,15.70
2022-10-15T15:27:41.009Z,15.70
2022-10-15T15:30:14.039Z,15.70
2022-10-15T15:32:40.828Z,15.60
2022-10-15T15:35:20.264Z,15.40
2022-10-15T15:37:51.288Z,15.30
2022-10-15T15:40:18.407Z,15.20
2022-10-15T15:42:46.864Z,15.30
2022-10-15T15:45:26.384Z,15.20
2022-10-15T15:47:53.863Z,15.30
2022-10-15T15:50:21.531Z,15.30
2022-10-15T15:52:48.410Z,15.30
2022-10-15T15:55:15.488Z,15.30
2022-10-15T15:57:42.326Z,15.30
2022-10-15T16:00:10.307Z,15.20
2022-10-15T16:02:38.010Z,15.20
2022-10-15T16:05:06.456Z,15.10
2022-10-15T16:07:33.806Z,15.10
2022-10-15T16:10:01.188Z,15.10
2022-10-15T16:12:27.958Z,15.10
2022-10-15T16:14:55.773Z,15.00
2022-10-15T16:17:24.161Z,14.80
2022-10-15T16:19:51.246Z,14.80
2022-10-15T16:22:17.989Z,14.80
2022-10-15T16:24:44.789Z,14.70
2022-10-15T16:27:12.012Z,14.60
2022-10-15T16:29:38.759Z,14.60
2022-10-15T16:32:05.711Z,14.60
2022-10-15T16:34:32.523Z,14.60
2022-10-15T16:36:59.283Z,14.50
2022-10-15T16:39:26.049Z,14.50
2022-10-15T16:41:52.810Z,14.60
2022-10-15T16:44:19.595Z,14.60
2022-10-15T16:46:46.337Z,14.70
2022-10-15T16:49:13.217Z,14.70
2022-10-15T16:51:42.887Z,14.70
2022-10-15T16:54:15.559Z,14.80
2022-10-15T16:56:42.789Z,14.80
2022-10-15T16:59:09.963Z,14.80
2022-10-15T17:01:37.001Z,14.80
2022-10-15T17:04:03.900Z,14.70
2022-10-15T17:06:31.520Z,14.60
2022-10-15T17:09:00.183Z,14.60
2022-10-15T17:11:33.062Z,14.50
2022-10-15T17:14:02.769Z,14.60
2022-10-15T17:16:36.370Z,14.70
2022-10-15T17:19:03.378Z,14.70
2022-10-15T17:21:31.307Z,14.60
2022-10-15T17:24:00.226Z,14.70
2022-10-15T17:26:29.838Z,14.70
2022-10-15T17:28:56.604Z,14.80
2022-10-15T17:31:25.566Z,14.70
2022-10-15T17:34:12.848Z,14.80
2022-10-15T17:36:47.105Z,14.70
2022-10-15T17:39:17.956Z,14.60
2022-10-15T17:41:44.957Z,14.50
2022-10-15T17:44:12.279Z,14.50
2022-10-15T17:46:40.914Z,14.60
2022-10-15T17:49:09.535Z,14.50
2022-10-15T17:51:36.706Z,14.50
2022-10-15T17:54:05.719Z,14.60
2022-10-15T17:56:34.303Z,14.50
2022-10-15T17:59:03.880Z,14.40
2022-10-15T18:01:56.226Z,14.50
2022-10-15T18:04:20.208Z,14.40
2022-10-15T18:06:46.967Z,14.40
2022-10-15T18:09:27.566Z,14.50
2022-10-15T18:12:01.102Z,14.40
2022-10-15T18:14:30.448Z,14.40
2022-10-15T18:16:57.595Z,14.30
2022-10-15T18:19:26.421Z,14.30
2022-10-15T18:21:53.531Z,14.50
2022-10-15T18:24:22.003Z,14.50
2022-10-15T18:26:50.397Z,14.50
2022-10-15T18:29:17.191Z,14.60
2022-10-15T18:31:46.794Z,14.60
2022-10-15T18:34:14.044Z,14.50
2022-10-15T18:36:42.411Z,14.40
2022-10-15T18:39:09.737Z,14.30
2022-10-15T18:41:38.257Z,14.40
2022-10-15T18:44:15.971Z,14.30
2022-10-15T18:46:44.850Z,14.30
2022-10-15T18:49:14.569Z,14.30
2022-10-15T18:51:41.899Z,14.30
2022-10-15T18:54:10.887Z,14.30
2022-10-15T18:56:38.301Z,14.20
2022-10-15T18:59:05.170Z,14.30
2022-10-15T19:01:33.938Z,14.20
2022-10-15T19:04:04.970Z,14.20
2022-10-15T19:06:36.427Z,14.20
2022-10-15T19:09:06.948Z,14.30
2022-10-15T19:11:34.232Z,14.40
2022-10-15T19:14:02.557Z,14.30
2022-10-15T19:16:29.564Z,14.30
2022-10-15T19:19:03.220Z,14.40
2022-10-15T19:21:30.993Z,14.30
2022-10-15T19:23:58.228Z,14.30
2022-10-15T19:26:25.170Z,14.10
2022-10-15T19:28:52.260Z,14.20
2022-10-15T19:31:30.479Z,14.10
2022-10-15T19:34:00.493Z,14.20
2022-10-15T19:36:34.172Z,14.20
2022-10-15T19:39:04.126Z,14.20
2022-10-15T19:41:30.878Z,14.30
2022-10-15T19:43:57.726Z,14.20
2022-10-15T19:46:24.933Z,14.20
2022-10-15T19:48:51.683Z,14.30
2022-10-15T19:51:21.665Z,14.30
2022-10-15T19:53:56.358Z,14.30
2022-10-15T19:56:23.636Z,14.30
2022-10-15T19:58:58.742Z,14.30
2022-10-15T20:01:26.881Z,14.20
2022-10-15T20:03:54.159Z,14.30
2022-10-15T20:06:21.275Z,14.20
2022-10-15T20:08:48.458Z,14.30
2022-10-15T20:11:15.584Z,14.30
2022-10-15T20:13:42.376Z,14.30
2022-10-15T20:16:13.941Z,14.20
2022-10-15T20:18:41.056Z,14.20
2022-10-15T20:21:13.504Z,14.20
2022-10-15T20:23:41.870Z,14.10
2022-10-15T20:26:11.554Z,14.20
2022-10-15T20:28:44.413Z,14.10
2022-10-15T20:31:14.415Z,14.10
2022-10-15T20:33:41.742Z,14.10
2022-10-15T20:36:16.422Z,14.10
2022-10-15T20:38:45.751Z,14.00
2022-10-15T20:41:14.598Z,14.00
2022-10-15T20:43:42.616Z,14.00
2022-10-15T20:46:20.730Z,14.00
2022-10-15T20:48:48.078Z,14.00
2022-10-15T20:51:17.550Z,14.10
2022-10-15T20:53:45.966Z,14.10
2022-10-15T20:56:13.129Z,14.10
2022-10-15T20:58:40.031Z,14.00
2022-10-15T21:01:07.876Z,14.00
2022-10-15T21:03:34.853Z,13.90
2022-10-15T21:06:01.849Z,14.00
2022-10-15T21:08:28.608Z,14.00
2022-10-15T21:11:02.790Z,14.00
2022-10-15T21:13:29.657Z,14.00
2022-10-15T21:16:05.999Z,14.00
2022-10-15T21:18:34.215Z,14.00
2022-10-15T21:21:02.853Z,14.00
2022-10-15T21:23:33.156Z,14.00
2022-10-15T21:26:11.084Z,13.90
2022-10-15T21:28:38.399Z,13.90
2022-10-15T21:31:10.899Z,13.80
2022-10-15T21:33:38.286Z,13.80
2022-10-15T21:36:26.545Z,13.90
2022-10-15T21:39:01.835Z,13.90
2022-10-15T21:41:31.380Z,13.90
2022-10-15T21:43:59.092Z,13.80
2022-10-15T21:46:26.229Z,13.70
2022-10-15T21:48:53.707Z,13.70
2022-10-15T21:51:25.821Z,13.70
2022-10-15T21:53:53.735Z,13.70
2022-10-15T21:56:22.264Z,13.70
2022-10-15T21:58:49.440Z,13.60
2022-10-15T22:01:27.807Z,13.60
2022-10-15T22:04:03.624Z,13.60
2022-10-15T22:06:31.993Z,13.60
2022-10-15T22:08:59.173Z,13.60
2022-10-15T22:11:31.724Z,13.60
2022-10-15T22:14:03.762Z,13.60
2022-10-15T22:16:33.858Z,13.40
2022-10-15T22:19:00.872Z,13.50
2022-10-15T22:21:29.744Z,13.50
2022-10-15T22:24:01.429Z,13.40
2022-10-15T22:26:31.611Z,13.40
2022-10-15T22:29:00.108Z,13.50
2022-10-15T22:31:27.923Z,13.40
2022-10-15T22:33:55.656Z,13.40
2022-10-15T22:36:24.678Z,13.40
2022-10-15T22:39:11.980Z,13.40
2022-10-15T22:41:40.399Z,13.40
2022-10-15T22:44:08.544Z,13.40
2022-10-15T22:46:37.748Z,13.20
2022-10-15T22:49:05.493Z,13.20
2022-10-15T22:51:32.976Z,13.20
2022-10-15T22:54:00.574Z,13.30
2022-10-15T22:56:28.285Z,13.30
2022-10-15T22:58:56.945Z,13.30
2022-10-15T23:01:29.103Z,13.20
2022-10-15T23:03:58.776Z,13.20
2022-10-15T23:06:26.128Z,13.10
2022-10-15T23:08:53.685Z,13.10
2022-10-15T23:11:30.742Z,13.10
2022-10-15T23:14:01.502Z,13.10
2022-10-15T23:16:32.121Z,13.00
2022-10-15T23:19:00.953Z,12.90
2022-10-15T23:21:43.641Z,12.80
2022-10-15T23:24:11.133Z,12.80
2022-10-15T23:26:39.204Z,12.90
2022-10-15T23:29:07.418Z,12.90
2022-10-15T23:31:35.819Z,12.90
2022-10-15T23:34:04.330Z,12.80
2022-10-15T23:36:32.442Z,12.90
2022-10-15T23:39:04.871Z,12.90
2022-10-15T23:41:32.091Z,12.90
2022-10-15T23:43:59.844Z,12.90
2022-10-15T23:46:26.871Z,12.90
2022-10-15T23:48:53.593Z,12.90
2022-10-15T23:51:25.723Z,12.90
2022-10-15T23:53:53.644Z,12.90
2022-10-15T23:56:21.329Z,12.80
2022-10-15T23:58:52.817Z,12.80
